Inez, KY

09:18 PM EDT dna 01 Apríl, 2015 (GMT -0400)
Big Sandy Reg AP, Prestonsbur | | Change Station
CLOSE
Current Station
Airport
Location: Big Sandy Reg AP, Prestonsbur,
Nad. výška:: 1220 ft
Najbližšie meteo stanice

Elev 1220 ft 37.75 °N, 82.64 °W | Updated 23 minutes ago

Jasno
Jasno
58 °F
Feels Like 58 °F
N
4
Vietor meniaci sa Vietor from VSV

Dnes
High -- | Low -- °F
--% Chance of Precip.
Yesterday
High -- | Low -- °F
Precip. -- in
7:15 AM 7:52 PM
Pribúdajúci mesiac, 2. fáza, 95% visible
Tlak 30.13 in
Viditeľnosť 10.0 mile
Oblačnost Jasno
Rosný bod 20 °F
Vlhkosť 23%
Rainfall 0.00 in
Výška snehu Not available.
UV 0 out of 12
Pollen 9.90 out of 12
Air Quality Not available.
Flu Activity Not available.
METAR KSJS 020055Z AUTO 06003KT 10SM CLR 15/M07 A3013 RMK AO2 T01451068

More Conditions Fewer Conditions

Tlak 30.13 in
Viditeľnosť 10.0 mile
Oblačnost Jasno
Rosný bod 20 °F
Vlhkosť 23%
Rainfall 0.00 in
Výška snehu Not available.
UV 0 out of 12
Pollen 9.90 out of 12
Air Quality Not available.
Flu Activity Not available.
METAR KSJS 020055Z AUTO 06003KT 10SM CLR 15/M07 A3013 RMK AO2 T01451068

More Conditions Fewer Conditions

10-Day Weather Forecast

Almanac

Astronómia

Apr. 01, 2015 Východ Západ
Aktuálny čas
Civil Twilight
Nautical Twilight
Astronomical Twilight
Mesiac
Length Of Visible Light
Dĺžka dňa
Tomorrow will be .
, % of the Moon is Illuminated

Today's Extremes

State Highs State Lows

Community

WunderPhotos

Upload Photos

1,810,142 photos uploaded!

WunderBlogs® & News

Nearby

Air Quality

  Air Quality AQ Index Pollutant
Not available.

Výska snehu

Station Depth Nad. výška:

Aktivita zemetrasenia

Mesto Distance Mag. Time & Date
Minimum magnitude displayed is 2.5.

Coastal Water Temperatures

Miesto Teplota

Stations

Najbližšie meteo stanice

Station Location Temp Pocitová teplota Rosný bod Vlhkosť Vietor Precip. Elev Cas aktualizacie Type